sensor_id;sensor_type;location;lat;lon;timestamp;temperature;humidity
43043;DHT22;28667;50.758;6.096;2023-09-07T00:00:13;16.80;99.90
43043;DHT22;28667;50.758;6.096;2023-09-07T00:02:39;16.70;99.90
43043;DHT22;28667;50.758;6.096;2023-09-07T00:05:09;16.70;99.90
43043;DHT22;28667;50.758;6.096;2023-09-07T00:07:35;16.60;99.90
43043;DHT22;28667;50.758;6.096;2023-09-07T00:10:01;16.60;99.90
43043;DHT22;28667;50.758;6.096;2023-09-07T00:12:28;16.60;99.90
43043;DHT22;28667;50.758;6.096;2023-09-07T00:14:54;16.50;99.90
43043;DHT22;28667;50.758;6.096;2023-09-07T00:17:21;16.50;99.90
43043;DHT22;28667;50.758;6.096;2023-09-07T00:19:46;16.50;99.90
43043;DHT22;28667;50.758;6.096;2023-09-07T00:22:17;16.40;99.90
43043;DHT22;28667;50.758;6.096;2023-09-07T00:24:43;16.40;99.90
43043;DHT22;28667;50.758;6.096;2023-09-07T00:27:09;16.40;99.90
43043;DHT22;28667;50.758;6.096;2023-09-07T00:29:40;16.40;99.90
43043;DHT22;28667;50.758;6.096;2023-09-07T00:32:06;16.30;99.90
43043;DHT22;28667;50.758;6.096;2023-09-07T00:34:31;16.30;99.90
43043;DHT22;28667;50.758;6.096;2023-09-07T00:36:57;16.30;99.90
43043;DHT22;28667;50.758;6.096;2023-09-07T00:39:23;16.20;99.90
43043;DHT22;28667;50.758;6.096;2023-09-07T00:41:49;16.20;99.90
43043;DHT22;28667;50.758;6.096;2023-09-07T00:44:15;16.20;99.90
43043;DHT22;28667;50.758;6.096;2023-09-07T00:46:41;16.20;99.90
43043;DHT22;28667;50.758;6.096;2023-09-07T00:49:07;16.10;99.90
43043;DHT22;28667;50.758;6.096;2023-09-07T00:51:33;16.10;99.90
43043;DHT22;28667;50.758;6.096;2023-09-07T00:54:00;16.10;99.90
43043;DHT22;28667;50.758;6.096;2023-09-07T00:56:26;16.10;99.90
43043;DHT22;28667;50.758;6.096;2023-09-07T00:58:53;16.00;99.90
43043;DHT22;28667;50.758;6.096;2023-09-07T01:01:22;16.00;99.90
43043;DHT22;28667;50.758;6.096;2023-09-07T01:03:49;16.00;99.90
43043;DHT22;28667;50.758;6.096;2023-09-07T01:06:20;16.00;99.90
43043;DHT22;28667;50.758;6.096;2023-09-07T01:08:50;16.00;99.90
43043;DHT22;28667;50.758;6.096;2023-09-07T01:11:19;15.90;99.90
43043;DHT22;28667;50.758;6.096;2023-09-07T01:13:52;15.90;99.90
43043;DHT22;28667;50.758;6.096;2023-09-07T01:16:20;15.90;99.90
43043;DHT22;28667;50.758;6.096;2023-09-07T01:18:47;15.90;99.90
43043;DHT22;28667;50.758;6.096;2023-09-07T01:21:13;15.80;99.90
43043;DHT22;28667;50.758;6.096;2023-09-07T01:23:43;15.90;99.90
43043;DHT22;28667;50.758;6.096;2023-09-07T01:26:10;15.80;99.90
43043;DHT22;28667;50.758;6.096;2023-09-07T01:28:37;15.80;99.90
43043;DHT22;28667;50.758;6.096;2023-09-07T01:31:04;15.80;99.90
43043;DHT22;28667;50.758;6.096;2023-09-07T01:33:30;15.80;99.90
43043;DHT22;28667;50.758;6.096;2023-09-07T01:35:56;15.70;99.90
43043;DHT22;28667;50.758;6.096;2023-09-07T01:38:22;15.70;99.90
43043;DHT22;28667;50.758;6.096;2023-09-07T01:40:47;15.70;99.90
43043;DHT22;28667;50.758;6.096;2023-09-07T01:43:13;15.70;99.90
43043;DHT22;28667;50.758;6.096;2023-09-07T01:45:39;15.70;99.90
43043;DHT22;28667;50.758;6.096;2023-09-07T01:48:11;15.60;99.90
43043;DHT22;28667;50.758;6.096;2023-09-07T01:50:37;15.60;99.90
43043;DHT22;28667;50.758;6.096;2023-09-07T01:53:03;15.60;99.90
43043;DHT22;28667;50.758;6.096;2023-09-07T01:55:31;15.50;99.90
43043;DHT22;28667;50.758;6.096;2023-09-07T01:57:58;15.50;99.90
43043;DHT22;28667;50.758;6.096;2023-09-07T02:00:25;15.50;99.90
43043;DHT22;28667;50.758;6.096;2023-09-07T02:02:50;15.40;99.90
43043;DHT22;28667;50.758;6.096;2023-09-07T02:05:16;15.50;99.90
43043;DHT22;28667;50.758;6.096;2023-09-07T02:07:43;15.40;99.90
43043;DHT22;28667;50.758;6.096;2023-09-07T02:10:09;15.40;99.90
43043;DHT22;28667;50.758;6.096;2023-09-07T02:12:35;15.40;99.90
43043;DHT22;28667;50.758;6.096;2023-09-07T02:15:02;15.30;99.90
43043;DHT22;28667;50.758;6.096;2023-09-07T02:17:28;15.30;99.90
43043;DHT22;28667;50.758;6.096;2023-09-07T02:19:54;15.30;99.90
43043;DHT22;28667;50.758;6.096;2023-09-07T02:22:20;15.30;99.90
43043;DHT22;28667;50.758;6.096;2023-09-07T02:24:46;15.20;99.90
43043;DHT22;28667;50.758;6.096;2023-09-07T02:27:11;15.20;99.90
43043;DHT22;28667;50.758;6.096;2023-09-07T02:29:37;15.10;99.90
43043;DHT22;28667;50.758;6.096;2023-09-07T02:32:03;15.20;99.90
43043;DHT22;28667;50.758;6.096;2023-09-07T02:34:30;15.10;99.90
43043;DHT22;28667;50.758;6.096;2023-09-07T02:36:56;15.10;99.90
43043;DHT22;28667;50.758;6.096;2023-09-07T02:39:23;15.00;99.90
43043;DHT22;28667;50.758;6.096;2023-09-07T02:41:52;15.00;99.90
43043;DHT22;28667;50.758;6.096;2023-09-07T02:44:18;15.00;99.90
43043;DHT22;28667;50.758;6.096;2023-09-07T02:46:44;15.00;99.90
43043;DHT22;28667;50.758;6.096;2023-09-07T02:49:10;15.00;99.90
43043;DHT22;28667;50.758;6.096;2023-09-07T02:51:36;14.90;99.90
43043;DHT22;28667;50.758;6.096;2023-09-07T02:54:02;14.90;99.90
43043;DHT22;28667;50.758;6.096;2023-09-07T02:56:31;14.90;99.90
43043;DHT22;28667;50.758;6.096;2023-09-07T02:58:56;14.80;99.90
43043;DHT22;28667;50.758;6.096;2023-09-07T03:01:22;14.80;99.90
43043;DHT22;28667;50.758;6.096;2023-09-07T03:03:49;14.80;99.90
43043;DHT22;28667;50.758;6.096;2023-09-07T03:06:15;14.80;99.90
43043;DHT22;28667;50.758;6.096;2023-09-07T03:08:44;14.70;99.90
43043;DHT22;28667;50.758;6.096;2023-09-07T03:11:11;14.70;99.90
43043;DHT22;28667;50.758;6.096;2023-09-07T03:13:38;14.70;99.90
43043;DHT22;28667;50.758;6.096;2023-09-07T03:16:04;14.70;99.90
43043;DHT22;28667;50.758;6.096;2023-09-07T03:18:31;14.60;99.90
43043;DHT22;28667;50.758;6.096;2023-09-07T03:21:01;14.60;99.90
43043;DHT22;28667;50.758;6.096;2023-09-07T03:23:29;14.60;99.90
43043;DHT22;28667;50.758;6.096;2023-09-07T03:25:57;14.50;99.90
43043;DHT22;28667;50.758;6.096;2023-09-07T03:28:24;14.50;99.90
43043;DHT22;28667;50.758;6.096;2023-09-07T03:30:54;14.50;99.90
43043;DHT22;28667;50.758;6.096;2023-09-07T03:33:21;14.50;99.90
43043;DHT22;28667;50.758;6.096;2023-09-07T03:35:47;14.50;99.90
43043;DHT22;28667;50.758;6.096;2023-09-07T03:38:13;14.40;99.90
43043;DHT22;28667;50.758;6.096;2023-09-07T03:40:39;14.40;99.90
43043;DHT22;28667;50.758;6.096;2023-09-07T03:43:05;14.40;99.90
43043;DHT22;28667;50.758;6.096;2023-09-07T03:45:31;14.40;99.90
43043;DHT22;28667;50.758;6.096;2023-09-07T03:47:57;14.30;99.90
43043;DHT22;28667;50.758;6.096;2023-09-07T03:50:23;14.30;99.90
43043;DHT22;28667;50.758;6.096;2023-09-07T03:52:49;14.30;99.90
43043;DHT22;28667;50.758;6.096;2023-09-07T03:55:15;14.30;99.90
43043;DHT22;28667;50.758;6.096;2023-09-07T03:57:40;14.20;99.90
43043;DHT22;28667;50.758;6.096;2023-09-07T04:00:07;14.20;99.90
43043;DHT22;28667;50.758;6.096;2023-09-07T04:02:38;14.20;99.90
43043;DHT22;28667;50.758;6.096;2023-09-07T04:05:05;14.20;99.90
43043;DHT22;28667;50.758;6.096;2023-09-07T04:07:31;14.10;99.90
43043;DHT22;28667;50.758;6.096;2023-09-07T04:09:58;14.10;99.90
43043;DHT22;28667;50.758;6.096;2023-09-07T04:12:24;14.10;99.90
43043;DHT22;28667;50.758;6.096;2023-09-07T04:14:51;14.00;99.90
43043;DHT22;28667;50.758;6.096;2023-09-07T04:17:17;14.00;99.90
43043;DHT22;28667;50.758;6.096;2023-09-07T04:19:42;14.00;99.90
43043;DHT22;28667;50.758;6.096;2023-09-07T04:22:10;14.00;99.90
43043;DHT22;28667;50.758;6.096;2023-09-07T04:24:36;14.00;99.90
43043;DHT22;28667;50.758;6.096;2023-09-07T04:27:04;13.90;99.90
43043;DHT22;28667;50.758;6.096;2023-09-07T04:29:32;13.90;99.90
43043;DHT22;28667;50.758;6.096;2023-09-07T04:31:57;13.90;99.90
43043;DHT22;28667;50.758;6.096;2023-09-07T04:34:24;13.90;99.90
43043;DHT22;28667;50.758;6.096;2023-09-07T04:36:51;13.90;99.90
43043;DHT22;28667;50.758;6.096;2023-09-07T04:39:17;13.80;99.90
43043;DHT22;28667;50.758;6.096;2023-09-07T04:41:43;13.80;99.90
43043;DHT22;28667;50.758;6.096;2023-09-07T04:44:10;13.80;99.90
43043;DHT22;28667;50.758;6.096;2023-09-07T04:46:36;13.80;99.90
43043;DHT22;28667;50.758;6.096;2023-09-07T04:49:02;13.70;99.90
43043;DHT22;28667;50.758;6.096;2023-09-07T04:51:28;13.70;99.90
43043;DHT22;28667;50.758;6.096;2023-09-07T04:53:53;13.70;99.90
43043;DHT22;28667;50.758;6.096;2023-09-07T04:56:19;13.70;99.90
43043;DHT22;28667;50.758;6.096;2023-09-07T04:58:47;13.70;99.90
43043;DHT22;28667;50.758;6.096;2023-09-07T05:01:13;13.70;99.90
43043;DHT22;28667;50.758;6.096;2023-09-07T05:03:39;13.70;99.90
43043;DHT22;28667;50.758;6.096;2023-09-07T05:06:07;13.60;99.90
43043;DHT22;28667;50.758;6.096;2023-09-07T05:08:33;13.60;99.90
43043;DHT22;28667;50.758;6.096;2023-09-07T05:11:00;13.60;99.90
43043;DHT22;28667;50.758;6.096;2023-09-07T05:13:27;13.60;99.90
43043;DHT22;28667;50.758;6.096;2023-09-07T05:15:55;13.60;99.90
43043;DHT22;28667;50.758;6.096;2023-09-07T05:18:21;13.60;99.90
43043;DHT22;28667;50.758;6.096;2023-09-07T05:20:48;13.60;99.90
43043;DHT22;28667;50.758;6.096;2023-09-07T05:23:15;13.60;99.90
43043;DHT22;28667;50.758;6.096;2023-09-07T05:26:02;13.60;99.90
43043;DHT22;28667;50.758;6.096;2023-09-07T05:28:27;13.60;99.90
43043;DHT22;28667;50.758;6.096;2023-09-07T05:30:55;13.60;99.90
43043;DHT22;28667;50.758;6.096;2023-09-07T05:33:22;13.60;99.90
43043;DHT22;28667;50.758;6.096;2023-09-07T05:35:48;13.60;99.90
43043;DHT22;28667;50.758;6.096;2023-09-07T05:38:14;13.70;99.90
43043;DHT22;28667;50.758;6.096;2023-09-07T05:40:43;13.70;99.90
43043;DHT22;28667;50.758;6.096;2023-09-07T05:43:10;13.70;99.90
43043;DHT22;28667;50.758;6.096;2023-09-07T05:45:38;13.70;99.90
43043;DHT22;28667;50.758;6.096;2023-09-07T05:48:06;13.80;99.90
43043;DHT22;28667;50.758;6.096;2023-09-07T05:50:35;13.80;99.90
43043;DHT22;28667;50.758;6.096;2023-09-07T05:53:02;13.80;99.90
43043;DHT22;28667;50.758;6.096;2023-09-07T05:55:28;13.90;99.90
43043;DHT22;28667;50.758;6.096;2023-09-07T05:57:55;13.90;99.90
43043;DHT22;28667;50.758;6.096;2023-09-07T06:00:22;13.90;99.90
43043;DHT22;28667;50.758;6.096;2023-09-07T06:02:49;13.90;99.90
43043;DHT22;28667;50.758;6.096;2023-09-07T06:05:15;14.00;99.90
43043;DHT22;28667;50.758;6.096;2023-09-07T06:07:42;14.10;99.90
43043;DHT22;28667;50.758;6.096;2023-09-07T06:10:08;14.10;99.90
43043;DHT22;28667;50.758;6.096;2023-09-07T06:12:35;14.10;99.90
43043;DHT22;28667;50.758;6.096;2023-09-07T06:15:02;14.20;99.90
43043;DHT22;28667;50.758;6.096;2023-09-07T06:17:29;14.20;99.90
43043;DHT22;28667;50.758;6.096;2023-09-07T06:19:55;14.30;99.90
43043;DHT22;28667;50.758;6.096;2023-09-07T06:22:21;14.30;99.90
43043;DHT22;28667;50.758;6.096;2023-09-07T06:24:47;14.40;99.90
43043;DHT22;28667;50.758;6.096;2023-09-07T06:27:13;14.40;99.90
43043;DHT22;28667;50.758;6.096;2023-09-07T06:29:39;14.50;99.90
43043;DHT22;28667;50.758;6.096;2023-09-07T06:32:05;14.50;99.90
43043;DHT22;28667;50.758;6.096;2023-09-07T06:34:31;14.60;99.90
43043;DHT22;28667;50.758;6.096;2023-09-07T06:36:57;14.60;99.90
43043;DHT22;28667;50.758;6.096;2023-09-07T06:39:22;14.70;99.90
43043;DHT22;28667;50.758;6.096;2023-09-07T06:41:48;14.80;99.90
43043;DHT22;28667;50.758;6.096;2023-09-07T06:44:16;14.90;99.90
43043;DHT22;28667;50.758;6.096;2023-09-07T06:46:42;14.90;99.90
43043;DHT22;28667;50.758;6.096;2023-09-07T06:49:08;15.00;99.90
43043;DHT22;28667;50.758;6.096;2023-09-07T06:51:34;15.10;99.90
43043;DHT22;28667;50.758;6.096;2023-09-07T06:54:00;15.20;99.90
43043;DHT22;28667;50.758;6.096;2023-09-07T06:56:27;15.30;99.90
43043;DHT22;28667;50.758;6.096;2023-09-07T06:58:53;15.40;99.90
43043;DHT22;28667;50.758;6.096;2023-09-07T07:01:19;15.50;99.90
43043;DHT22;28667;50.758;6.096;2023-09-07T07:03:45;15.60;99.90
43043;DHT22;28667;50.758;6.096;2023-09-07T07:06:11;15.70;99.90
43043;DHT22;28667;50.758;6.096;2023-09-07T07:08:37;15.80;99.90
43043;DHT22;28667;50.758;6.096;2023-09-07T07:11:03;15.90;99.90
43043;DHT22;28667;50.758;6.096;2023-09-07T07:13:29;16.00;99.90
43043;DHT22;28667;50.758;6.096;2023-09-07T07:15:55;16.00;99.90
43043;DHT22;28667;50.758;6.096;2023-09-07T07:18:21;16.10;99.90
43043;DHT22;28667;50.758;6.096;2023-09-07T07:20:48;16.00;99.90
43043;DHT22;28667;50.758;6.096;2023-09-07T07:23:16;16.10;99.90
43043;DHT22;28667;50.758;6.096;2023-09-07T07:25:42;16.20;99.90
43043;DHT22;28667;50.758;6.096;2023-09-07T07:28:08;16.30;99.90
43043;DHT22;28667;50.758;6.096;2023-09-07T07:30:38;16.40;99.90
43043;DHT22;28667;50.758;6.096;2023-09-07T07:33:06;16.40;99.90
43043;DHT22;28667;50.758;6.096;2023-09-07T07:35:33;16.50;99.90
43043;DHT22;28667;50.758;6.096;2023-09-07T07:38:01;16.60;99.90
43043;DHT22;28667;50.758;6.096;2023-09-07T07:40:27;16.70;99.90
43043;DHT22;28667;50.758;6.096;2023-09-07T07:42:53;16.80;99.90
43043;DHT22;28667;50.758;6.096;2023-09-07T07:45:20;16.90;99.90
43043;DHT22;28667;50.758;6.096;2023-09-07T07:47:53;17.10;99.90
43043;DHT22;28667;50.758;6.096;2023-09-07T07:50:19;17.20;99.90
43043;DHT22;28667;50.758;6.096;2023-09-07T07:52:46;17.30;99.90
43043;DHT22;28667;50.758;6.096;2023-09-07T07:55:12;17.40;99.90
43043;DHT22;28667;50.758;6.096;2023-09-07T07:57:39;17.50;99.90
43043;DHT22;28667;50.758;6.096;2023-09-07T08:00:07;17.60;99.90
43043;DHT22;28667;50.758;6.096;2023-09-07T08:02:39;17.70;99.90
43043;DHT22;28667;50.758;6.096;2023-09-07T08:05:07;17.80;99.90
43043;DHT22;28667;50.758;6.096;2023-09-07T08:07:34;18.00;99.90
43043;DHT22;28667;50.758;6.096;2023-09-07T08:10:00;18.00;99.90
43043;DHT22;28667;50.758;6.096;2023-09-07T08:12:27;18.10;99.90
43043;DHT22;28667;50.758;6.096;2023-09-07T08:14:54;18.20;99.90
43043;DHT22;28667;50.758;6.096;2023-09-07T08:17:22;18.30;99.90
43043;DHT22;28667;50.758;6.096;2023-09-07T08:19:49;18.40;99.90
43043;DHT22;28667;50.758;6.096;2023-09-07T08:22:17;18.60;99.90
43043;DHT22;28667;50.758;6.096;2023-09-07T08:24:43;18.70;99.90
43043;DHT22;28667;50.758;6.096;2023-09-07T08:27:11;18.90;99.90
43043;DHT22;28667;50.758;6.096;2023-09-07T08:29:42;18.90;99.90
43043;DHT22;28667;50.758;6.096;2023-09-07T08:32:12;19.10;99.90
43043;DHT22;28667;50.758;6.096;2023-09-07T08:34:39;19.20;99.90
43043;DHT22;28667;50.758;6.096;2023-09-07T08:37:07;19.20;99.90
43043;DHT22;28667;50.758;6.096;2023-09-07T08:39:37;19.30;99.90
43043;DHT22;28667;50.758;6.096;2023-09-07T08:42:05;19.30;99.90
43043;DHT22;28667;50.758;6.096;2023-09-07T08:44:33;19.50;99.90
43043;DHT22;28667;50.758;6.096;2023-09-07T08:46:59;19.60;99.90
43043;DHT22;28667;50.758;6.096;2023-09-07T08:49:28;19.70;99.90
43043;DHT22;28667;50.758;6.096;2023-09-07T08:52:02;19.90;99.90
43043;DHT22;28667;50.758;6.096;2023-09-07T08:54:29;20.10;99.90
43043;DHT22;28667;50.758;6.096;2023-09-07T08:56:57;20.30;99.90
43043;DHT22;28667;50.758;6.096;2023-09-07T08:59:24;20.40;99.90
43043;DHT22;28667;50.758;6.096;2023-09-07T09:01:49;20.60;99.90
43043;DHT22;28667;50.758;6.096;2023-09-07T09:04:15;20.70;99.90
43043;DHT22;28667;50.758;6.096;2023-09-07T09:06:41;20.90;99.90
43043;DHT22;28667;50.758;6.096;2023-09-07T09:09:07;20.90;99.90
43043;DHT22;28667;50.758;6.096;2023-09-07T09:11:32;21.00;99.90
43043;DHT22;28667;50.758;6.096;2023-09-07T09:13:58;21.10;99.90
43043;DHT22;28667;50.758;6.096;2023-09-07T09:16:24;21.10;99.90
43043;DHT22;28667;50.758;6.096;2023-09-07T09:18:52;21.20;99.90
43043;DHT22;28667;50.758;6.096;2023-09-07T09:21:20;21.30;99.90
43043;DHT22;28667;50.758;6.096;2023-09-07T09:23:48;21.40;99.90
43043;DHT22;28667;50.758;6.096;2023-09-07T09:26:15;21.50;99.90
43043;DHT22;28667;50.758;6.096;2023-09-07T09:28:42;21.60;99.90
43043;DHT22;28667;50.758;6.096;2023-09-07T09:31:10;21.80;99.90
43043;DHT22;28667;50.758;6.096;2023-09-07T09:33:42;21.90;99.90
43043;DHT22;28667;50.758;6.096;2023-09-07T09:36:08;22.00;99.90
43043;DHT22;28667;50.758;6.096;2023-09-07T09:38:35;22.10;99.90
43043;DHT22;28667;50.758;6.096;2023-09-07T09:41:01;22.20;99.90
43043;DHT22;28667;50.758;6.096;2023-09-07T09:43:29;22.30;99.90
43043;DHT22;28667;50.758;6.096;2023-09-07T09:45:55;22.30;99.90
43043;DHT22;28667;50.758;6.096;2023-09-07T09:48:21;22.40;99.90
43043;DHT22;28667;50.758;6.096;2023-09-07T09:50:47;22.50;99.90
43043;DHT22;28667;50.758;6.096;2023-09-07T09:53:15;22.60;99.90
43043;DHT22;28667;50.758;6.096;2023-09-07T09:55:45;22.70;99.90
43043;DHT22;28667;50.758;6.096;2023-09-07T09:58:13;22.80;99.90
43043;DHT22;28667;50.758;6.096;2023-09-07T10:01:01;22.90;99.90
43043;DHT22;28667;50.758;6.096;2023-09-07T10:03:32;22.90;99.90
43043;DHT22;28667;50.758;6.096;2023-09-07T10:06:09;23.00;99.90
43043;DHT22;28667;50.758;6.096;2023-09-07T10:08:35;23.10;99.90
43043;DHT22;28667;50.758;6.096;2023-09-07T10:11:08;23.20;99.90
43043;DHT22;28667;50.758;6.096;2023-09-07T10:13:35;23.30;99.90
43043;DHT22;28667;50.758;6.096;2023-09-07T10:16:07;23.50;99.90
43043;DHT22;28667;50.758;6.096;2023-09-07T10:18:35;23.60;99.90
43043;DHT22;28667;50.758;6.096;2023-09-07T10:21:01;23.70;99.90
43043;DHT22;28667;50.758;6.096;2023-09-07T10:23:41;23.80;99.90
43043;DHT22;28667;50.758;6.096;2023-09-07T10:26:17;24.00;99.90
43043;DHT22;28667;50.758;6.096;2023-09-07T10:28:44;24.10;99.90
43043;DHT22;28667;50.758;6.096;2023-09-07T10:31:16;24.30;99.90
43043;DHT22;28667;50.758;6.096;2023-09-07T10:33:43;24.50;99.90
43043;DHT22;28667;50.758;6.096;2023-09-07T10:36:23;24.60;99.80
43043;DHT22;28667;50.758;6.096;2023-09-07T10:38:49;24.80;99.70
43043;DHT22;28667;50.758;6.096;2023-09-07T10:41:17;24.80;99.80
43043;DHT22;28667;50.758;6.096;2023-09-07T10:43:54;24.90;99.60
43043;DHT22;28667;50.758;6.096;2023-09-07T10:46:21;25.00;99.50
43043;DHT22;28667;50.758;6.096;2023-09-07T10:48:51;25.10;99.60
43043;DHT22;28667;50.758;6.096;2023-09-07T10:51:21;25.20;99.00
43043;DHT22;28667;50.758;6.096;2023-09-07T10:53:47;25.30;99.10
43043;DHT22;28667;50.758;6.096;2023-09-07T10:56:13;25.40;98.80
43043;DHT22;28667;50.758;6.096;2023-09-07T10:58:39;25.50;98.80
43043;DHT22;28667;50.758;6.096;2023-09-07T11:01:07;25.60;99.00
43043;DHT22;28667;50.758;6.096;2023-09-07T11:03:33;25.70;98.60
43043;DHT22;28667;50.758;6.096;2023-09-07T11:06:15;25.80;98.50
43043;DHT22;28667;50.758;6.096;2023-09-07T11:08:43;25.90;98.30
43043;DHT22;28667;50.758;6.096;2023-09-07T11:11:09;26.00;98.20
43043;DHT22;28667;50.758;6.096;2023-09-07T11:13:35;26.10;98.00
43043;DHT22;28667;50.758;6.096;2023-09-07T11:16:01;26.20;97.40
43043;DHT22;28667;50.758;6.096;2023-09-07T11:18:27;26.30;97.30
43043;DHT22;28667;50.758;6.096;2023-09-07T11:20:53;26.40;96.90
43043;DHT22;28667;50.758;6.096;2023-09-07T11:23:20;26.40;96.40
43043;DHT22;28667;50.758;6.096;2023-09-07T11:25:50;26.60;96.20
43043;DHT22;28667;50.758;6.096;2023-09-07T11:28:17;26.70;96.70
43043;DHT22;28667;50.758;6.096;2023-09-07T11:30:51;26.80;96.30
43043;DHT22;28667;50.758;6.096;2023-09-07T11:33:18;26.90;95.60
43043;DHT22;28667;50.758;6.096;2023-09-07T11:35:43;26.90;95.60
43043;DHT22;28667;50.758;6.096;2023-09-07T11:38:13;27.00;94.70
43043;DHT22;28667;50.758;6.096;2023-09-07T11:40:39;27.10;94.30
43043;DHT22;28667;50.758;6.096;2023-09-07T11:43:05;27.10;94.00
43043;DHT22;28667;50.758;6.096;2023-09-07T11:45:30;27.20;93.40
43043;DHT22;28667;50.758;6.096;2023-09-07T11:47:57;27.30;93.40
43043;DHT22;28667;50.758;6.096;2023-09-07T11:50:24;27.40;93.30
43043;DHT22;28667;50.758;6.096;2023-09-07T11:52:55;27.50;93.20
43043;DHT22;28667;50.758;6.096;2023-09-07T11:55:22;27.50;93.50
43043;DHT22;28667;50.758;6.096;2023-09-07T11:57:48;27.50;93.30
43043;DHT22;28667;50.758;6.096;2023-09-07T12:00:14;27.50;93.10
43043;DHT22;28667;50.758;6.096;2023-09-07T12:02:41;27.60;92.70
43043;DHT22;28667;50.758;6.096;2023-09-07T12:05:07;27.70;92.90
43043;DHT22;28667;50.758;6.096;2023-09-07T12:07:40;27.70;93.30
43043;DHT22;28667;50.758;6.096;2023-09-07T12:10:06;27.80;92.40
43043;DHT22;28667;50.758;6.096;2023-09-07T12:12:43;27.80;92.50
43043;DHT22;28667;50.758;6.096;2023-09-07T12:15:10;27.90;92.40
43043;DHT22;28667;50.758;6.096;2023-09-07T12:17:39;27.90;92.10
43043;DHT22;28667;50.758;6.096;2023-09-07T12:20:05;28.00;92.20
43043;DHT22;28667;50.758;6.096;2023-09-07T12:22:35;28.00;91.30
43043;DHT22;28667;50.758;6.096;2023-09-07T12:25:04;28.10;92.00
43043;DHT22;28667;50.758;6.096;2023-09-07T12:27:33;28.20;91.70
43043;DHT22;28667;50.758;6.096;2023-09-07T12:29:59;28.20;91.70
43043;DHT22;28667;50.758;6.096;2023-09-07T12:32:25;28.30;91.30
43043;DHT22;28667;50.758;6.096;2023-09-07T12:34:51;28.40;91.40
43043;DHT22;28667;50.758;6.096;2023-09-07T12:37:19;28.40;91.50
43043;DHT22;28667;50.758;6.096;2023-09-07T12:39:51;28.50;91.40
43043;DHT22;28667;50.758;6.096;2023-09-07T12:42:17;28.50;91.10
43043;DHT22;28667;50.758;6.096;2023-09-07T12:44:44;28.60;90.80
43043;DHT22;28667;50.758;6.096;2023-09-07T12:47:10;28.60;90.60
43043;DHT22;28667;50.758;6.096;2023-09-07T12:49:35;28.70;90.80
43043;DHT22;28667;50.758;6.096;2023-09-07T12:52:01;28.80;90.60
43043;DHT22;28667;50.758;6.096;2023-09-07T12:54:34;28.80;89.80
43043;DHT22;28667;50.758;6.096;2023-09-07T12:57:01;28.80;90.30
43043;DHT22;28667;50.758;6.096;2023-09-07T12:59:26;28.80;89.90
43043;DHT22;28667;50.758;6.096;2023-09-07T13:01:52;28.90;89.70
43043;DHT22;28667;50.758;6.096;2023-09-07T13:04:21;29.00;90.10
43043;DHT22;28667;50.758;6.096;2023-09-07T13:06:47;29.00;89.30
43043;DHT22;28667;50.758;6.096;2023-09-07T13:09:13;29.10;90.30
43043;DHT22;28667;50.758;6.096;2023-09-07T13:11:39;29.10;90.60
43043;DHT22;28667;50.758;6.096;2023-09-07T13:14:05;29.20;90.80
43043;DHT22;28667;50.758;6.096;2023-09-07T13:16:31;29.30;90.80
43043;DHT22;28667;50.758;6.096;2023-09-07T13:18:58;29.40;90.60
43043;DHT22;28667;50.758;6.096;2023-09-07T13:21:24;29.40;90.60
43043;DHT22;28667;50.758;6.096;2023-09-07T13:23:50;29.50;90.30
43043;DHT22;28667;50.758;6.096;2023-09-07T13:26:15;29.50;90.20
43043;DHT22;28667;50.758;6.096;2023-09-07T13:28:41;29.50;91.60
43043;DHT22;28667;50.758;6.096;2023-09-07T13:31:07;29.50;92.20
43043;DHT22;28667;50.758;6.096;2023-09-07T13:33:33;29.50;92.60
43043;DHT22;28667;50.758;6.096;2023-09-07T13:35:58;29.60;91.90
43043;DHT22;28667;50.758;6.096;2023-09-07T13:38:24;29.60;91.60
43043;DHT22;28667;50.758;6.096;2023-09-07T13:40:50;29.60;92.20
43043;DHT22;28667;50.758;6.096;2023-09-07T13:43:16;29.70;92.00
43043;DHT22;28667;50.758;6.096;2023-09-07T13:45:42;29.70;91.90
43043;DHT22;28667;50.758;6.096;2023-09-07T13:48:08;29.70;91.70
43043;DHT22;28667;50.758;6.096;2023-09-07T13:50:34;29.70;91.70
43043;DHT22;28667;50.758;6.096;2023-09-07T13:52:59;29.80;91.30
43043;DHT22;28667;50.758;6.096;2023-09-07T13:55:25;29.80;91.50
43043;DHT22;28667;50.758;6.096;2023-09-07T13:57:51;29.70;91.10
43043;DHT22;28667;50.758;6.096;2023-09-07T14:00:17;29.80;91.60
43043;DHT22;28667;50.758;6.096;2023-09-07T14:02:42;29.80;91.10
43043;DHT22;28667;50.758;6.096;2023-09-07T14:05:08;29.80;91.20
43043;DHT22;28667;50.758;6.096;2023-09-07T14:07:34;29.90;91.10
43043;DHT22;28667;50.758;6.096;2023-09-07T14:10:00;29.80;90.80
43043;DHT22;28667;50.758;6.096;2023-09-07T14:12:26;29.90;91.10
43043;DHT22;28667;50.758;6.096;2023-09-07T14:14:52;29.90;90.80
43043;DHT22;28667;50.758;6.096;2023-09-07T14:17:18;29.90;90.20
43043;DHT22;28667;50.758;6.096;2023-09-07T14:19:44;29.90;90.40
43043;DHT22;28667;50.758;6.096;2023-09-07T14:22:12;29.90;90.50
43043;DHT22;28667;50.758;6.096;2023-09-07T14:24:38;29.90;90.60
43043;DHT22;28667;50.758;6.096;2023-09-07T14:27:04;30.00;90.20
43043;DHT22;28667;50.758;6.096;2023-09-07T14:29:30;30.00;90.50
43043;DHT22;28667;50.758;6.096;2023-09-07T14:31:56;30.00;90.50
43043;DHT22;28667;50.758;6.096;2023-09-07T14:34:22;30.00;90.40
43043;DHT22;28667;50.758;6.096;2023-09-07T14:36:47;30.10;90.00
43043;DHT22;28667;50.758;6.096;2023-09-07T14:39:13;30.10;89.60
43043;DHT22;28667;50.758;6.096;2023-09-07T14:41:39;30.10;89.30
43043;DHT22;28667;50.758;6.096;2023-09-07T14:44:06;30.10;89.40
43043;DHT22;28667;50.758;6.096;2023-09-07T14:46:32;30.20;88.40
43043;DHT22;28667;50.758;6.096;2023-09-07T14:48:58;30.20;89.10
43043;DHT22;28667;50.758;6.096;2023-09-07T14:51:24;30.20;89.80
43043;DHT22;28667;50.758;6.096;2023-09-07T14:53:49;30.20;88.90
43043;DHT22;28667;50.758;6.096;2023-09-07T14:56:15;30.20;89.40
43043;DHT22;28667;50.758;6.096;2023-09-07T14:58:41;30.30;89.60
43043;DHT22;28667;50.758;6.096;2023-09-07T15:01:07;30.30;87.80
43043;DHT22;28667;50.758;6.096;2023-09-07T15:03:33;30.40;87.80
43043;DHT22;28667;50.758;6.096;2023-09-07T15:05:58;30.40;88.30
43043;DHT22;28667;50.758;6.096;2023-09-07T15:08:24;30.50;88.60
43043;DHT22;28667;50.758;6.096;2023-09-07T15:10:50;30.60;87.70
43043;DHT22;28667;50.758;6.096;2023-09-07T15:13:16;30.60;88.10
43043;DHT22;28667;50.758;6.096;2023-09-07T15:15:42;30.60;87.60
43043;DHT22;28667;50.758;6.096;2023-09-07T15:18:08;30.60;87.80
43043;DHT22;28667;50.758;6.096;2023-09-07T15:20:37;30.70;88.40
43043;DHT22;28667;50.758;6.096;2023-09-07T15:23:03;30.70;87.80
43043;DHT22;28667;50.758;6.096;2023-09-07T15:25:29;30.70;87.90
43043;DHT22;28667;50.758;6.096;2023-09-07T15:27:56;30.70;87.80